Time;durP1;ratioP1;P1;durP2;ratioP2;P2;SDS_P1;SDS_P2;PMS_P1;PMS_P2;Temp;Humidity;BMP_temperature;BMP_pressure;BME280_temperature;BME280_humidity;BME280_pressure;Samples;Min_cycle;Max_cycle;Signal;HPM_P1;HPM_P2
2023/03/23 00:01:15;;;;;;;0.10;0.10;;;5.80;99.90;;;;;;5054862;28;20161;-76
2023/03/23 00:03:42;;;;;;;0.10;0.10;;;5.50;99.90;;;;;;5086490;28;20028;-76
2023/03/23 00:06:08;;;;;;;0.10;0.10;;;5.70;99.90;;;;;;5070891;28;20020;-74
2023/03/23 00:08:45;;;;;;;0.10;0.10;;;5.60;99.90;;;;;;5089708;28;20056;-76
2023/03/23 00:11:19;;;;;;;2.95;2.85;;;5.50;99.90;;;;;;5091906;28;20031;-76
2023/03/23 00:13:46;;;;;;;0.10;0.10;;;5.50;99.90;;;;;;5089533;28;20032;-75
2023/03/23 00:16:19;;;;;;;0.10;0.10;;;5.50;99.90;;;;;;5086910;28;20502;-76
2023/03/23 00:18:52;;;;;;;0.20;0.20;;;5.50;99.90;;;;;;5068522;28;20558;-76
2023/03/23 00:21:25;;;;;;;0.10;0.10;;;5.40;99.90;;;;;;5090854;28;20028;-76
2023/03/23 00:23:51;;;;;;;0.03;0.03;;;5.50;99.90;;;;;;5068763;28;20555;-76
2023/03/23 00:26:19;;;;;;;0.10;0.10;;;5.40;99.90;;;;;;5086831;28;20107;-77
2023/03/23 00:28:46;;;;;;;0.10;0.10;;;5.40;99.90;;;;;;5070306;28;20335;-76
2023/03/23 00:31:13;;;;;;;0.10;0.10;;;5.30;99.90;;;;;;5068939;28;20020;-76
2023/03/23 00:33:40;;;;;;;0.20;0.20;;;5.30;99.90;;;;;;5087268;28;20016;-76
2023/03/23 00:36:14;;;;;;;0.10;0.10;;;4.30;99.90;;;;;;5087025;28;20028;-76
2023/03/23 00:38:41;;;;;;;0.10;0.10;;;5.20;99.90;;;;;;5085972;28;20055;-76
2023/03/23 00:41:07;;;;;;;0.10;0.10;;;5.20;99.90;;;;;;5088838;28;20525;-76
2023/03/23 00:43:35;;;;;;;0.10;0.10;;;5.10;99.90;;;;;;5085491;28;20035;-76
2023/03/23 00:46:02;;;;;;;0.10;0.10;;;5.10;99.90;;;;;;5084081;28;20168;-77
2023/03/23 00:48:32;;;;;;;0.10;0.10;;;5.10;99.90;;;;;;5087930;28;20032;-76
2023/03/23 00:51:01;;;;;;;0.20;0.20;;;5.10;99.90;;;;;;5085884;28;20062;-76
2023/03/23 00:53:28;;;;;;;0.10;0.10;;;;;;;;;;5091887;28;20728;-77
2023/03/23 00:55:55;;;;;;;0.47;0.47;;;5.00;99.90;;;;;;5091471;28;20316;-76
2023/03/23 00:58:20;;;;;;;0.17;0.17;;;5.00;99.90;;;;;;5091403;28;20028;-76
2023/03/23 01:00:52;;;;;;;0.10;0.10;;;4.90;99.90;;;;;;5089326;28;20031;-76
2023/03/23 01:03:18;;;;;;;0.10;0.10;;;5.00;99.90;;;;;;5087324;28;20113;-76
2023/03/23 01:05:46;;;;;;;0.10;0.10;;;4.80;99.90;;;;;;5084499;28;20039;-76
2023/03/23 01:08:16;;;;;;;0.20;0.20;;;4.40;99.90;;;;;;5087970;28;20107;-79
2023/03/23 01:10:42;;;;;;;0.75;0.75;;;4.80;99.90;;;;;;5069342;28;20028;-77
2023/03/23 01:13:08;;;;;;;0.10;0.10;;;4.80;99.90;;;;;;5067397;28;20069;-77
2023/03/23 01:15:36;;;;;;;0.10;0.10;;;4.80;99.90;;;;;;5083096;28;20024;-76
2023/03/23 01:18:02;;;;;;;0.10;0.10;;;;;;;;;;5088830;28;20040;-76
2023/03/23 01:20:31;;;;;;;0.10;0.10;;;;;;;;;;5071233;28;20020;-76
2023/03/23 01:23:01;;;;;;;0.13;0.13;;;4.70;99.90;;;;;;5086376;28;20410;-76
2023/03/23 01:25:32;;;;;;;0.10;0.10;;;4.70;99.90;;;;;;5068077;28;20058;-76
2023/03/23 01:27:59;;;;;;;0.10;0.10;;;4.70;99.90;;;;;;5083740;28;20093;-76
2023/03/23 01:30:26;;;;;;;0.10;0.10;;;5.00;99.90;;;;;;5086929;28;20055;-76
2023/03/23 01:32:55;;;;;;;0.13;0.13;;;;;;;;;;5088091;28;20028;-76
2023/03/23 01:35:25;;;;;;;0.10;0.10;;;4.70;99.90;;;;;;5087108;28;20028;-76
2023/03/23 01:37:55;;;;;;;0.50;0.50;;;4.70;99.90;;;;;;5093412;28;20097;-75
2023/03/23 01:40:22;;;;;;;0.10;0.10;;;4.70;99.90;;;;;;5088917;28;20028;-76
2023/03/23 01:42:50;;;;;;;0.20;0.20;;;4.70;99.90;;;;;;5061100;28;20092;-76
2023/03/23 01:45:19;;;;;;;0.20;0.20;;;4.70;99.90;;;;;;5070145;28;20036;-77
2023/03/23 01:47:52;;;;;;;0.10;0.10;;;6.00;99.90;;;;;;5087330;28;20062;-76
2023/03/23 01:50:27;;;;;;;0.10;0.10;;;4.70;99.90;;;;;;5090999;28;20055;-76
2023/03/23 01:52:56;;;;;;;0.10;0.10;;;4.60;99.90;;;;;;5085167;28;20107;-76
2023/03/23 01:55:27;;;;;;;0.10;0.10;;;3.90;99.90;;;;;;5087707;28;20025;-76
2023/03/23 01:57:56;;;;;;;0.10;0.10;;;4.70;99.90;;;;;;5091084;28;20032;-76
2023/03/23 02:00:25;;;;;;;0.35;0.35;;;4.60;99.90;;;;;;5086550;28;20031;-76
2023/03/23 02:02:53;;;;;;;0.10;0.10;;;4.60;99.90;;;;;;5087843;28;20016;-76
2023/03/23 02:05:34;;;;;;;0.13;0.13;;;4.60;99.90;;;;;;5086103;28;20099;-76
2023/03/23 02:08:02;;;;;;;0.10;0.10;;;4.50;99.90;;;;;;5087224;28;20024;-77
2023/03/23 02:10:31;;;;;;;0.20;0.20;;;4.50;99.90;;;;;;5086794;28;20097;-77
2023/03/23 02:12:58;;;;;;;0.20;0.20;;;4.50;99.90;;;;;;5086154;28;20068;-76
2023/03/23 02:15:35;;;;;;;0.10;0.10;;;4.60;99.90;;;;;;5089413;28;20020;-75
2023/03/23 02:18:16;;;;;;;0.15;0.15;;;4.60;99.90;;;;;;5091316;28;20068;-76
2023/03/23 02:21:15;;;;;;;0.43;0.43;;;4.50;99.90;;;;;;5082067;28;20103;-76
2023/03/23 02:24:20;;;;;;;0.20;0.20;;;4.50;99.90;;;;;;5090115;28;20043;-76
2023/03/23 02:27:04;;;;;;;0.10;0.10;;;4.50;99.90;;;;;;5086151;28;20024;-76
2023/03/23 02:29:46;;;;;;;0.32;0.32;;;4.50;99.90;;;;;;5088643;28;20020;-76
2023/03/23 02:32:56;;;;;;;0.20;0.20;;;4.40;99.90;;;;;;5088909;28;20123;-76
2023/03/23 02:35:56;;;;;;;0.30;0.30;;;4.40;99.90;;;;;;5066236;28;20524;-78
2023/03/23 02:38:31;;;;;;;0.20;0.20;;;4.40;99.90;;;;;;5092513;28;20356;-76
2023/03/23 02:41:01;;;;;;;0.20;0.20;;;4.40;99.90;;;;;;5089723;28;20036;-76
2023/03/23 02:43:36;;;;;;;0.10;0.10;;;4.40;99.90;;;;;;5086819;28;20024;-76
2023/03/23 02:46:06;;;;;;;0.10;0.10;;;4.30;99.90;;;;;;5083664;28;20031;-77
2023/03/23 02:48:33;;;;;;;0.10;0.10;;;4.30;99.90;;;;;;5082980;28;20038;-75
2023/03/23 02:51:01;;;;;;;0.20;0.20;;;4.30;99.90;;;;;;5088866;28;20031;-76
2023/03/23 02:53:29;;;;;;;0.20;0.20;;;4.30;99.90;;;;;;5079476;28;20034;-78
2023/03/23 02:55:57;;;;;;;2.15;2.15;;;4.40;99.90;;;;;;5076938;28;20170;-76
2023/03/23 02:58:27;;;;;;;0.10;0.10;;;4.30;99.90;;;;;;5076007;28;20482;-76
2023/03/23 03:00:56;;;;;;;0.10;0.10;;;4.30;99.90;;;;;;5095427;28;20035;-76
2023/03/23 03:03:28;;;;;;;0.13;0.13;;;4.30;99.90;;;;;;5094591;28;20024;-76
2023/03/23 03:06:24;;;;;;;0.10;0.10;;;4.40;99.90;;;;;;5078875;28;20030;-76
2023/03/23 03:08:53;;;;;;;6.22;6.03;;;3.10;99.90;;;;;;5100753;28;20023;-77
2023/03/23 03:11:25;;;;;;;0.10;0.10;;;6.50;99.90;;;;;;5098632;28;20078;-76
2023/03/23 03:14:19;;;;;;;0.10;0.10;;;4.30;99.90;;;;;;5098183;28;20084;-78
2023/03/23 03:17:10;;;;;;;0.20;0.20;;;4.30;99.90;;;;;;5102736;28;20044;-76
2023/03/23 03:19:44;;;;;;;0.20;0.20;;;4.60;99.90;;;;;;5099684;28;20032;-76
2023/03/23 03:22:13;;;;;;;0.30;0.30;;;4.30;99.90;;;;;;5092647;28;20024;-76
2023/03/23 03:24:42;;;;;;;0.17;0.17;;;4.30;99.90;;;;;;5089616;28;20024;-77
2023/03/23 03:27:16;;;;;;;0.20;0.20;;;4.20;99.90;;;;;;5089104;28;20024;-77
2023/03/23 03:29:47;;;;;;;0.10;0.10;;;4.20;99.90;;;;;;5068900;28;20032;-76
2023/03/23 03:32:20;;;;;;;0.10;0.10;;;4.20;99.90;;;;;;5089348;28;20016;-77
2023/03/23 03:34:47;;;;;;;0.10;0.10;;;;;;;;;;5088779;28;20020;-75
2023/03/23 03:37:13;;;;;;;3.45;3.30;;;4.20;99.90;;;;;;5088855;28;20310;-76
2023/03/23 03:39:40;;;;;;;6.28;5.97;;;;;;;;;;5089889;28;20262;-76
2023/03/23 03:42:07;;;;;;;0.10;0.10;;;4.20;99.90;;;;;;5097115;28;20047;-76
2023/03/23 03:44:34;;;;;;;0.10;0.10;;;4.10;99.90;;;;;;5087524;28;20020;-76
2023/03/23 03:47:01;;;;;;;0.15;0.15;;;4.10;99.90;;;;;;5102546;28;20068;-76
2023/03/23 03:49:28;;;;;;;0.10;0.10;;;;;;;;;;5078152;28;20028;-76
2023/03/23 03:51:56;;;;;;;0.20;0.20;;;4.10;99.90;;;;;;5098907;28;20021;-77
2023/03/23 03:54:23;;;;;;;0.10;0.10;;;4.10;99.90;;;;;;5087463;28;20034;-77
2023/03/23 03:56:51;;;;;;;0.00;0.00;;;4.00;99.90;;;;;;5103136;28;20047;-76
2023/03/23 03:59:19;;;;;;;0.35;0.35;;;4.00;99.90;;;;;;5068702;28;20032;-75
2023/03/23 04:01:53;;;;;;;0.13;0.13;;;4.00;99.90;;;;;;5084669;28;20066;-76
2023/03/23 04:04:21;;;;;;;0.10;0.10;;;4.00;99.90;;;;;;5093674;28;20070;-76
2023/03/23 04:06:48;;;;;;;0.55;0.55;;;4.00;99.90;;;;;;5088541;28;20024;-76
2023/03/23 04:09:14;;;;;;;0.13;0.13;;;3.90;99.90;;;;;;5086310;28;20497;-77
2023/03/23 04:11:40;;;;;;;0.17;0.17;;;3.90;99.90;;;;;;5091294;28;20043;-76
2023/03/23 04:14:06;;;;;;;0.20;0.20;;;3.90;99.90;;;;;;5088686;28;20020;-76
2023/03/23 04:16:34;;;;;;;0.10;0.10;;;3.90;99.90;;;;;;5089811;28;20032;-78
2023/03/23 04:19:00;;;;;;;1.15;1.15;;;3.90;99.90;;;;;;5091972;28;20055;-76
2023/03/23 04:21:28;;;;;;;0.20;0.20;;;3.70;99.90;;;;;;5093958;28;20482;-77
2023/03/23 04:23:58;;;;;;;0.20;0.20;;;3.90;99.90;;;;;;5091349;28;20335;-76
2023/03/23 04:26:28;;;;;;;0.10;0.10;;;3.80;99.90;;;;;;5088543;28;20028;-77
2023/03/23 04:28:55;;;;;;;0.15;0.15;;;3.80;99.90;;;;;;5088654;28;20020;-75
2023/03/23 04:31:24;;;;;;;0.10;0.10;;;4.20;99.90;;;;;;5088228;28;20253;-76
2023/03/23 04:33:54;;;;;;;0.10;0.10;;;3.70;99.90;;;;;;5090302;28;20017;-77
2023/03/23 04:36:22;;;;;;;0.20;0.20;;;3.70;99.90;;;;;;5086651;28;20031;-76
2023/03/23 04:38:49;;;;;;;0.10;0.10;;;3.70;99.90;;;;;;5086263;28;20048;-77
2023/03/23 04:41:17;;;;;;;0.10;0.10;;;3.60;99.90;;;;;;5085448;28;20026;-76
2023/03/23 04:43:43;;;;;;;0.20;0.20;;;3.60;99.90;;;;;;5088633;28;20410;-75
2023/03/23 04:46:09;;;;;;;0.20;0.20;;;3.70;99.90;;;;;;5091061;28;20024;-78
2023/03/23 04:48:37;;;;;;;5.07;4.88;;;3.70;99.90;;;;;;5074162;28;20495;-77
2023/03/23 04:51:04;;;;;;;0.20;0.20;;;6.50;99.90;;;;;;5074673;28;20022;-76
2023/03/23 04:53:35;;;;;;;0.20;0.20;;;3.70;99.90;;;;;;5091800;28;20047;-76
2023/03/23 04:56:01;;;;;;;0.20;0.20;;;;;;;;;;5091262;28;20434;-76
2023/03/23 04:58:27;;;;;;;0.20;0.20;;;3.60;99.90;;;;;;5073526;28;20290;-77
2023/03/23 05:00:57;;;;;;;0.10;0.10;;;3.60;99.90;;;;;;5072084;28;20039;-76
2023/03/23 05:03:24;;;;;;;0.10;0.10;;;3.50;99.90;;;;;;5089498;28;20032;-76
2023/03/23 05:05:52;;;;;;;0.20;0.20;;;3.60;99.90;;;;;;5057929;28;20438;-77
2023/03/23 05:08:24;;;;;;;0.17;0.17;;;3.60;99.90;;;;;;5071404;28;20043;-77
2023/03/23 05:10:57;;;;;;;0.20;0.20;;;3.50;99.90;;;;;;5091981;28;20052;-76
2023/03/23 05:13:23;;;;;;;4.13;3.80;;;3.50;99.90;;;;;;5090554;28;20020;-76
2023/03/23 05:15:49;;;;;;;0.17;0.17;;;3.50;99.90;;;;;;5086777;28;20032;-77
2023/03/23 05:18:15;;;;;;;0.10;0.10;;;3.60;99.90;;;;;;5091246;28;20058;-78
2023/03/23 05:20:42;;;;;;;0.20;0.20;;;3.50;99.90;;;;;;5087371;28;20099;-76
2023/03/23 05:23:09;;;;;;;0.10;0.10;;;3.60;99.90;;;;;;5071044;28;20042;-77
2023/03/23 05:25:40;;;;;;;0.10;0.10;;;3.60;99.90;;;;;;5090324;28;20028;-77
2023/03/23 05:28:07;;;;;;;0.20;0.20;;;3.80;99.90;;;;;;5076371;28;20217;-76
2023/03/23 05:30:35;;;;;;;0.10;0.10;;;3.60;99.90;;;;;;5088030;28;20050;-76
2023/03/23 05:33:01;;;;;;;0.13;0.13;;;3.60;99.90;;;;;;5064903;28;20039;-76
2023/03/23 05:35:27;;;;;;;7.35;6.90;;;4.20;99.90;;;;;;5067387;28;20047;-76
2023/03/23 05:37:55;;;;;;;0.10;0.10;;;3.70;99.90;;;;;;5083390;28;20360;-76
2023/03/23 05:46:19;;;;;;;0.20;0.20;;;3.80;99.90;;;;;;5064967;22;20056;-76
2023/03/23 05:48:45;;;;;;;0.20;0.20;;;3.90;99.90;;;;;;5046188;28;20031;-76
2023/03/23 05:51:12;;;;;;;0.10;0.10;;;;;;;;;;5047022;28;20008;-76
2023/03/23 05:53:38;;;;;;;0.10;0.10;;;;;;;;;;5064959;28;20020;-76
2023/03/23 05:56:04;;;;;;;0.10;0.10;;;4.00;99.90;;;;;;5064804;28;20013;-76
2023/03/23 05:58:31;;;;;;;0.20;0.20;;;4.10;99.90;;;;;;5046435;28;20031;-76
2023/03/23 06:00:56;;;;;;;0.10;0.10;;;4.10;99.90;;;;;;5067179;28;20103;-76
2023/03/23 06:03:22;;;;;;;0.20;0.20;;;4.20;99.90;;;;;;5078852;28;20032;-76
2023/03/23 06:05:48;;;;;;;14.27;13.63;;;4.20;99.90;;;;;;5083757;28;20032;-76
2023/03/23 06:08:14;;;;;;;1.48;1.40;;;4.30;99.90;;;;;;5075089;28;20012;-81
2023/03/23 06:10:40;;;;;;;8.07;7.63;;;4.50;99.90;;;;;;5083276;28;20094;-77
2023/03/23 06:13:07;;;;;;;0.65;0.65;;;4.50;99.90;;;;;;5073190;28;20029;-76
2023/03/23 06:15:35;;;;;;;3.70;3.60;;;4.40;99.90;;;;;;5050777;28;20029;-76
2023/03/23 06:18:03;;;;;;;0.10;0.10;;;4.70;99.90;;;;;;5043430;28;20048;-76
2023/03/23 06:20:30;;;;;;;0.10;0.10;;;4.80;99.90;;;;;;5083194;28;20017;-75
2023/03/23 06:23:01;;;;;;;0.10;0.10;;;4.90;99.90;;;;;;5083473;28;20101;-77
2023/03/23 06:25:32;;;;;;;1.70;1.65;;;5.00;99.90;;;;;;5066865;28;20021;-76
2023/03/23 06:27:59;;;;;;;0.10;0.10;;;5.30;99.90;;;;;;5085208;28;20043;-76
2023/03/23 06:30:28;;;;;;;0.10;0.10;;;5.10;99.90;;;;;;5068821;28;20023;-80
2023/03/23 06:32:55;;;;;;;0.10;0.10;;;5.90;99.90;;;;;;5067413;28;20043;-76
2023/03/23 06:35:21;;;;;;;0.00;0.00;;;5.60;99.90;;;;;;5053584;28;20016;-75
2023/03/23 06:37:47;;;;;;;32.58;13.85;;;5.70;99.90;;;;;;5064558;28;20079;-76
2023/03/23 06:40:13;;;;;;;0.10;0.10;;;5.80;99.90;;;;;;5066269;28;20044;-76
2023/03/23 06:42:45;;;;;;;1.02;1.02;;;6.00;99.90;;;;;;5068928;28;20052;-76
2023/03/23 06:45:11;;;;;;;0.10;0.10;;;;;;;;;;5062129;28;20068;-76
2023/03/23 06:47:41;;;;;;;0.10;0.10;;;6.40;99.90;;;;;;5071949;28;20056;-77
2023/03/23 06:50:08;;;;;;;0.00;0.00;;;6.30;99.90;;;;;;5073152;28;20119;-76
2023/03/23 06:52:34;;;;;;;0.10;0.10;;;6.50;99.90;;;;;;5073301;28;20050;-75
2023/03/23 06:55:00;;;;;;;0.08;0.08;;;6.70;99.90;;;;;;5075185;28;20025;-76
2023/03/23 06:57:27;;;;;;;1.75;1.65;;;6.80;99.90;;;;;;5077647;28;20040;-76
2023/03/23 06:59:53;;;;;;;0.00;0.00;;;;;;;;;;5069214;28;20789;-76
2023/03/23 07:02:25;;;;;;;0.50;0.50;;;9.00;99.90;;;;;;5077872;28;20179;-76
2023/03/23 07:04:51;;;;;;;0.10;0.10;;;7.10;99.90;;;;;;5080895;28;20047;-75
2023/03/23 07:07:18;;;;;;;0.10;0.10;;;7.90;99.90;;;;;;5085762;28;20021;-76
2023/03/23 07:09:48;;;;;;;0.10;0.10;;;7.50;99.90;;;;;;5084824;28;20062;-76
2023/03/23 07:12:15;;;;;;;0.05;0.05;;;4.70;99.90;;;;;;5070535;28;20025;-77
2023/03/23 07:14:43;;;;;;;0.00;0.00;;;7.70;99.90;;;;;;5069237;28;20703;-76
2023/03/23 07:17:11;;;;;;;7.88;7.57;;;8.30;99.90;;;;;;5067970;28;20043;-75
2023/03/23 07:19:38;;;;;;;0.00;0.00;;;8.10;99.90;;;;;;5078056;28;20024;-76
2023/03/23 07:22:07;;;;;;;0.20;0.20;;;9.00;99.90;;;;;;5076047;28;20085;-76
2023/03/23 07:24:34;;;;;;;0.00;0.00;;;8.40;99.90;;;;;;5076902;28;20025;-75
2023/03/23 07:27:00;;;;;;;0.20;0.20;;;8.50;99.90;;;;;;5074390;28;20048;-76
2023/03/23 07:29:28;;;;;;;0.10;0.10;;;8.30;99.90;;;;;;5071843;28;20062;-77
2023/03/23 07:31:54;;;;;;;0.00;0.00;;;8.90;99.90;;;;;;5069136;28;20020;-76
2023/03/23 07:34:27;;;;;;;0.03;0.03;;;9.10;99.90;;;;;;5073160;28;20025;-76
2023/03/23 07:36:53;;;;;;;0.30;0.30;;;9.20;99.90;;;;;;5078262;28;20075;-77
2023/03/23 07:39:19;;;;;;;0.00;0.00;;;9.20;99.90;;;;;;5075266;28;20028;-76
2023/03/23 07:41:44;;;;;;;5.38;5.07;;;9.40;99.90;;;;;;5076513;28;20109;-77
2023/03/23 07:44:10;;;;;;;0.00;0.00;;;9.60;99.90;;;;;;5072138;28;20040;-76
2023/03/23 07:46:36;;;;;;;7.35;6.60;;;9.80;99.90;;;;;;5064870;28;20040;-76
2023/03/23 07:49:05;;;;;;;0.10;0.10;;;9.90;99.90;;;;;;5065524;28;20017;-76
2023/03/23 07:51:32;;;;;;;0.10;0.10;;;9.70;99.90;;;;;;5062637;28;20012;-76
2023/03/23 07:53:59;;;;;;;0.55;0.55;;;10.10;99.90;;;;;;5079567;28;20090;-76
2023/03/23 07:56:26;;;;;;;0.10;0.10;;;10.20;99.90;;;;;;5061115;28;20032;-75
2023/03/23 07:58:52;;;;;;;0.98;0.98;;;10.20;99.90;;;;;;5062846;28;20104;-76
2023/03/23 08:01:18;;;;;;;0.00;0.00;;;10.40;99.90;;;;;;5063369;28;20034;-76
2023/03/23 08:03:45;;;;;;;0.10;0.10;;;10.40;99.90;;;;;;5064632;28;20032;-76
2023/03/23 08:06:11;;;;;;;0.20;0.20;;;10.60;99.90;;;;;;5066070;28;20044;-77
2023/03/23 08:08:40;;;;;;;0.10;0.10;;;10.80;99.90;;;;;;5062935;28;20039;-76
2023/03/23 08:11:06;;;;;;;0.10;0.10;;;11.20;99.90;;;;;;5063202;28;20012;-76
2023/03/23 08:13:33;;;;;;;0.30;0.30;;;11.10;99.90;;;;;;5065588;28;20024;-76
2023/03/23 08:16:00;;;;;;;0.10;0.10;;;11.30;99.90;;;;;;5071232;28;20021;-77
2023/03/23 08:18:26;;;;;;;0.30;0.30;;;11.30;99.90;;;;;;5063989;28;20025;-76
2023/03/23 08:20:53;;;;;;;1.85;1.75;;;11.80;99.90;;;;;;5064791;28;20028;-76
2023/03/23 08:23:22;;;;;;;0.10;0.10;;;11.70;99.90;;;;;;5068577;28;20681;-77
2023/03/23 08:25:48;;;;;;;0.93;0.93;;;12.00;99.90;;;;;;5070054;28;20110;-77
2023/03/23 08:28:17;;;;;;;0.10;0.10;;;11.90;97.80;;;;;;5063084;28;20572;-77
2023/03/23 08:30:44;;;;;;;0.10;0.10;;;12.10;98.20;;;;;;5060780;28;20635;-77
2023/03/23 08:33:10;;;;;;;0.68;0.68;;;12.20;97.20;;;;;;5062284;28;20051;-77
2023/03/23 08:35:36;;;;;;;0.10;0.10;;;12.40;97.30;;;;;;5059983;28;20055;-77
2023/03/23 08:38:02;;;;;;;3.83;3.58;;;12.60;95.20;;;;;;5060840;28;20035;-77
2023/03/23 08:40:28;;;;;;;0.10;0.10;;;12.70;95.40;;;;;;5060098;28;20017;-76
2023/03/23 08:42:55;;;;;;;0.10;0.10;;;12.90;93.40;;;;;;5060146;28;20017;-77
2023/03/23 08:45:23;;;;;;;0.10;0.10;;;13.00;92.40;;;;;;5059252;28;20059;-76
2023/03/23 08:47:51;;;;;;;0.10;0.10;;;13.30;92.70;;;;;;5057931;28;20048;-76
2023/03/23 08:50:21;;;;;;;0.45;0.45;;;13.40;90.90;;;;;;5058665;28;20587;-81
2023/03/23 08:52:47;;;;;;;0.68;0.68;;;13.60;90.30;;;;;;5059883;28;20497;-76
2023/03/23 08:55:13;;;;;;;0.10;0.10;;;13.70;88.90;;;;;;5059324;28;20033;-76
2023/03/23 08:57:40;;;;;;;0.30;0.30;;;13.90;89.80;;;;;;5057978;28;20623;-76
2023/03/23 09:00:17;;;;;;;0.40;0.40;;;14.00;86.90;;;;;;5059482;28;20027;-81
2023/03/23 09:02:44;;;;;;;1.42;1.42;;;13.80;86.50;;;;;;5057662;28;20055;-77
2023/03/23 09:05:11;;;;;;;0.38;0.38;;;14.10;86.90;;;;;;5059856;28;20021;-78
2023/03/23 09:07:39;;;;;;;0.10;0.10;;;14.20;82.80;;;;;;5057313;28;20459;-77
2023/03/23 09:10:06;;;;;;;0.15;0.15;;;14.40;82.50;;;;;;5057305;28;20021;-76
2023/03/23 09:12:32;;;;;;;0.15;0.15;;;14.40;80.10;;;;;;5059445;28;20020;-81
2023/03/23 09:14:58;;;;;;;0.10;0.10;;;14.60;79.50;;;;;;5059590;28;20746;-76
2023/03/23 09:17:25;;;;;;;0.20;0.20;;;14.70;76.90;;;;;;5056825;28;20044;-77
2023/03/23 09:19:51;;;;;;;0.13;0.13;;;15.00;77.30;;;;;;5057347;28;20012;-87
2023/03/23 09:22:19;;;;;;;0.10;0.10;;;15.40;76.70;;;;;;5057316;28;20032;-80
2023/03/23 09:24:46;;;;;;;0.20;0.20;;;15.00;76.90;;;;;;5057048;28;20029;-81
2023/03/23 09:27:12;;;;;;;0.28;0.28;;;15.10;76.00;;;;;;5058404;28;20033;-78
2023/03/23 09:29:38;;;;;;;2.05;1.42;;;15.20;78.40;;;;;;5060826;28;20106;-77
2023/03/23 09:32:04;;;;;;;0.20;0.20;;;15.40;76.50;;;;;;5060609;28;20033;-77
2023/03/23 09:34:30;;;;;;;0.22;0.22;;;15.60;74.90;;;;;;5057502;28;20036;-78
2023/03/23 09:36:55;;;;;;;0.20;0.20;;;15.60;73.70;;;;;;5056770;28;20033;-79
2023/03/23 09:39:21;;;;;;;0.10;0.10;;;15.90;74.00;;;;;;5058421;28;20017;-78
2023/03/23 09:42:18;;;;;;;0.10;0.10;;;16.10;73.70;;;;;;5057661;28;20166;-79
2023/03/23 09:45:06;;;;;;;0.10;0.10;;;16.20;72.30;;;;;;5058617;28;20032;-81
2023/03/23 09:47:41;;;;;;;0.10;0.10;;;16.30;72.30;;;;;;5058102;28;20029;-78
2023/03/23 09:50:12;;;;;;;0.10;0.10;;;16.50;71.50;;;;;;5058771;28;20025;-77
2023/03/23 09:53:08;;;;;;;0.20;0.20;;;16.60;70.80;;;;;;5060125;28;20036;-75
2023/03/23 09:55:35;;;;;;;0.88;0.88;;;16.50;70.90;;;;;;5059836;28;20111;-77
2023/03/23 09:58:25;;;;;;;0.20;0.20;;;16.80;70.50;;;;;;5073685;28;20095;-77
2023/03/23 10:01:26;;;;;;;1.02;0.93;;;17.30;70.90;;;;;;5057493;28;20538;-76
2023/03/23 10:04:03;;;;;;;0.10;0.10;;;16.80;72.10;;;;;;5056366;28;20271;-77
2023/03/23 10:06:29;;;;;;;0.13;0.13;;;16.80;70.90;;;;;;5057544;28;20088;-78
2023/03/23 10:08:57;;;;;;;0.35;0.35;;;16.90;72.70;;;;;;5057671;28;20111;-77
2023/03/23 10:12:04;;;;;;;2.88;2.67;;;16.90;72.30;;;;;;5058510;28;20422;-79
2023/03/23 10:14:50;;;;;;;0.15;0.15;;;16.90;74.60;;;;;;5058091;28;20699;-76
2023/03/23 10:17:31;;;;;;;0.10;0.10;;;17.20;75.30;;;;;;5055455;28;20024;-77
2023/03/23 10:20:32;;;;;;;0.17;0.17;;;17.30;71.10;;;;;;5059241;28;20028;-77
2023/03/23 10:23:20;;;;;;;2.15;2.05;;;17.50;73.30;;;;;;4998133;28;20088;-77
2023/03/23 10:26:09;;;;;;;1.35;1.35;;;17.60;70.50;;;;;;4982525;28;20057;-78
2023/03/23 10:28:39;;;;;;;1.30;1.30;;;17.60;70.20;;;;;;4940552;29;20470;-77
2023/03/23 10:31:16;;;;;;;0.30;0.30;;;17.80;69.80;;;;;;4939914;29;20035;-77
2023/03/23 10:33:46;;;;;;;0.10;0.10;;;17.90;69.80;;;;;;4941108;29;20192;-76
2023/03/23 10:36:26;;;;;;;0.80;0.80;;;17.90;69.20;;;;;;4940058;29;20058;-77
2023/03/23 10:39:05;;;;;;;0.10;0.10;;;18.40;67.80;;;;;;4939352;29;20043;-77
2023/03/23 10:41:31;;;;;;;0.32;0.32;;;18.40;68.30;;;;;;4940194;29;20035;-78
2023/03/23 10:43:57;;;;;;;0.38;0.32;;;16.80;67.20;;;;;;4939884;29;20042;-79
2023/03/23 10:46:36;;;;;;;0.30;0.30;;;18.40;67.40;;;;;;4939991;28;20046;-77
2023/03/23 10:49:09;;;;;;;1.77;1.70;;;18.50;66.70;;;;;;4939926;28;20031;-78
2023/03/23 10:51:39;;;;;;;0.10;0.10;;;18.70;67.50;;;;;;4939573;28;20027;-77
2023/03/23 10:54:06;;;;;;;0.10;0.10;;;19.00;67.70;;;;;;4939583;28;20898;-77
2023/03/23 10:56:39;;;;;;;0.10;0.10;;;19.30;65.50;;;;;;4938998;28;20316;-76
2023/03/23 10:59:34;;;;;;;0.10;0.10;;;19.40;64.40;;;;;;4970172;28;20120;-76
2023/03/23 11:02:10;;;;;;;0.10;0.10;;;19.50;63.30;;;;;;5015674;28;20022;-81
2023/03/23 11:04:36;;;;;;;0.32;0.32;;;19.60;62.30;;;;;;5018552;28;20246;-82
2023/03/23 11:07:03;;;;;;;0.10;0.10;;;19.80;62.70;;;;;;5061282;28;20096;-77
2023/03/23 11:09:37;;;;;;;0.40;0.40;;;20.00;61.60;;;;;;5061130;28;20516;-76
2023/03/23 11:12:03;;;;;;;0.75;0.75;;;22.70;62.70;;;;;;5062070;28;20290;-78
2023/03/23 11:14:38;;;;;;;0.52;0.47;;;20.00;61.60;;;;;;5059491;28;20020;-82
2023/03/23 11:17:19;;;;;;;0.10;0.10;;;20.30;61.90;;;;;;5061885;28;20124;-79
2023/03/23 11:19:52;;;;;;;0.10;0.10;;;20.40;59.70;;;;;;5061004;28;20494;-76
2023/03/23 11:22:29;;;;;;;;;;;18.80;58.40;;;;;;5061292;28;20016;-76
2023/03/23 11:25:00;;;;;;;0.10;0.10;;;20.70;58.90;;;;;;5060931;28;20014;-76
2023/03/23 11:27:28;;;;;;;1.10;0.95;;;21.00;60.60;;;;;;5058798;28;20283;-76
2023/03/23 11:29:57;;;;;;;0.20;0.20;;;21.20;59.70;;;;;;5058183;28;20335;-81
2023/03/23 11:32:27;;;;;;;0.13;0.13;;;21.30;58.90;;;;;;5061446;28;20031;-77
2023/03/23 11:35:08;;;;;;;0.35;0.35;;;21.50;59.10;;;;;;5061701;28;20093;-76
2023/03/23 11:38:06;;;;;;;0.10;0.10;;;21.70;58.70;;;;;;5060945;28;20035;-77
2023/03/23 11:40:47;;;;;;;0.70;0.70;;;21.90;58.80;;;;;;4982048;28;20056;-76
2023/03/23 11:43:18;;;;;;;0.22;0.22;;;22.00;57.80;;;;;;4998089;28;20022;-78
2023/03/23 11:45:50;;;;;;;0.10;0.10;;;21.50;57.20;;;;;;4982858;28;20050;-76
2023/03/23 11:48:27;;;;;;;0.40;0.40;;;22.40;57.20;;;;;;4982940;28;20408;-84
2023/03/23 11:51:11;;;;;;;0.30;0.30;;;22.60;56.60;;;;;;4997388;28;20037;-76
2023/03/23 11:53:55;;;;;;;0.10;0.10;;;22.50;57.20;;;;;;4997353;28;20463;-76
2023/03/23 11:56:41;;;;;;;0.43;0.43;;;22.80;56.90;;;;;;4996300;28;20247;-76
2023/03/23 11:59:30;;;;;;;0.73;0.73;;;22.90;55.50;;;;;;4980021;28;20046;-77
2023/03/23 12:02:17;;;;;;;0.17;0.17;;;23.20;55.80;;;;;;4996552;28;20022;-79
2023/03/23 12:05:10;;;;;;;0.20;0.20;;;23.40;55.10;;;;;;4996741;28;20048;-77
2023/03/23 12:07:59;;;;;;;1.45;1.00;;;23.60;54.20;;;;;;4996896;28;20030;-86
2023/03/23 12:10:35;;;;;;;0.20;0.20;;;23.60;53.90;;;;;;5010993;28;20031;-79
2023/03/23 12:13:07;;;;;;;0.43;0.43;;;23.30;54.40;;;;;;5059021;28;20577;-77
2023/03/23 12:15:53;;;;;;;0.82;0.82;;;21.90;53.70;;;;;;5058404;28;20288;-77
2023/03/23 12:18:32;;;;;;;0.10;0.10;;;23.00;54.70;;;;;;5059574;28;20470;-78
2023/03/23 12:21:10;;;;;;;0.10;0.10;;;23.20;54.30;;;;;;5058226;28;20043;-77
2023/03/23 12:23:45;;;;;;;0.10;0.10;;;23.50;54.40;;;;;;5058595;28;20178;-75
2023/03/23 12:26:30;;;;;;;0.00;0.00;;;23.80;56.10;;;;;;5058649;28;20727;-78
2023/03/23 12:29:47;;;;;;;1.85;1.75;;;23.00;52.70;;;;;;5058116;28;20546;-76
2023/03/23 12:32:40;;;;;;;1.02;0.50;;;23.70;52.60;;;;;;4995345;28;20411;-78
2023/03/23 12:35:09;;;;;;;0.00;0.00;;;24.70;52.80;;;;;;4995420;28;20735;-78
2023/03/23 12:38:01;;;;;;;0.10;0.10;;;24.90;52.30;;;;;;4995903;28;20418;-77
2023/03/23 12:40:48;;;;;;;0.00;0.00;;;24.40;51.80;;;;;;4978108;28;20044;-76
2023/03/23 12:43:32;;;;;;;0.05;0.05;;;24.70;52.10;;;;;;4995506;28;20026;-80
2023/03/23 12:46:13;;;;;;;0.10;0.10;;;24.80;51.60;;;;;;4994873;28;20050;-76
2023/03/23 12:48:44;;;;;;;0.20;0.20;;;25.00;51.30;;;;;;4995287;28;20339;-76
2023/03/23 12:51:19;;;;;;;0.68;0.55;;;25.50;52.00;;;;;;4977569;28;20467;-78
2023/03/23 12:53:55;;;;;;;0.40;0.40;;;25.90;51.00;;;;;;4995147;28;20088;-76
2023/03/23 12:56:27;;;;;;;0.45;0.30;;;26.30;51.00;;;;;;4994983;28;20030;-79
2023/03/23 12:59:38;;;;;;;0.22;0.22;;;25.80;48.90;;;;;;4994981;28;20287;-78
2023/03/23 13:02:31;;;;;;;0.15;0.15;;;25.90;49.60;;;;;;4994700;28;20498;-76
2023/03/23 13:05:26;;;;;;;0.35;0.35;;;26.00;49.30;;;;;;4978697;28;20674;-77
2023/03/23 13:08:11;;;;;;;0.20;0.20;;;25.90;50.20;;;;;;5056383;28;20062;-78
2023/03/23 13:10:47;;;;;;;0.25;0.25;;;26.00;49.90;;;;;;5058400;28;20029;-76
2023/03/23 13:13:41;;;;;;;0.10;0.10;;;26.10;50.30;;;;;;5058833;28;20210;-79
2023/03/23 13:16:26;;;;;;;2.75;0.63;;;26.10;48.60;;;;;;4994574;28;20455;-77
2023/03/23 13:19:16;;;;;;;0.88;0.55;;;26.30;49.50;;;;;;4977721;28;20246;-77
2023/03/23 13:22:16;;;;;;;0.00;0.00;;;26.70;48.90;;;;;;4995190;28;20049;-78
2023/03/23 13:24:51;;;;;;;0.10;0.10;;;27.00;48.60;;;;;;4984808;28;20038;-79
2023/03/23 13:27:17;;;;;;;0.00;0.00;;;26.20;47.90;;;;;;4995273;28;20052;-76